createdAt,value
2019-05-06T00:00:30.668Z,18.90
2019-05-06T00:03:05.077Z,18.80
2019-05-06T00:05:38.755Z,18.80
2019-05-06T00:08:14.325Z,18.70
2019-05-06T00:10:48.392Z,18.80
2019-05-06T00:13:24.054Z,18.80
2019-05-06T00:15:57.014Z,18.90
2019-05-06T00:18:30.717Z,18.90
2019-05-06T00:21:05.191Z,18.90
2019-05-06T00:23:44.946Z,18.20
2019-05-06T00:26:37.908Z,18.10
2019-05-06T00:29:17.870Z,18.10
2019-05-06T00:31:51.152Z,18.20
2019-05-06T00:34:25.323Z,18.60
2019-05-06T00:36:58.758Z,18.70
2019-05-06T00:40:06.043Z,18.90
2019-05-06T00:42:54.241Z,19.10
2019-05-06T00:45:28.718Z,19.00
2019-05-06T00:48:04.516Z,19.00
2019-05-06T00:50:37.860Z,19.00
2019-05-06T00:53:14.151Z,18.90
2019-05-06T00:55:47.854Z,18.80
2019-05-06T00:58:23.639Z,18.60
2019-05-06T01:00:56.781Z,18.70
2019-05-06T01:03:30.159Z,18.80
2019-05-06T01:06:04.761Z,18.60
2019-05-06T01:08:38.571Z,18.60
2019-05-06T01:11:14.462Z,18.70
2019-05-06T01:14:07.220Z,18.90
2019-05-06T01:16:43.851Z,18.90
2019-05-06T01:19:16.349Z,19.00
2019-05-06T01:21:50.419Z,18.60
2019-05-06T01:24:24.041Z,18.50
2019-05-06T01:26:57.649Z,18.60
2019-05-06T01:29:31.017Z,18.60
2019-05-06T01:32:05.038Z,18.40
2019-05-06T01:34:39.251Z,18.20
2019-05-06T01:37:14.287Z,18.40
2019-05-06T01:40:04.142Z,18.40
2019-05-06T01:42:50.909Z,18.70
2019-05-06T01:45:24.621Z,18.70
2019-05-06T01:47:58.054Z,18.70
2019-05-06T01:50:34.318Z,18.80
2019-05-06T01:53:07.956Z,18.90
2019-05-06T01:55:41.448Z,18.90
2019-05-06T01:58:14.879Z,18.90
2019-05-06T02:00:48.461Z,18.90
2019-05-06T02:03:24.101Z,19.00
2019-05-06T02:05:57.869Z,18.90
2019-05-06T02:08:33.574Z,18.90
2019-05-06T02:11:07.282Z,19.10
2019-05-06T02:13:40.475Z,19.20
2019-05-06T02:16:14.828Z,19.30
2019-05-06T02:18:47.645Z,19.20
2019-05-06T02:21:40.137Z,19.30
2019-05-06T02:24:19.139Z,19.30
2019-05-06T02:26:54.249Z,19.30
2019-05-06T02:29:29.885Z,19.30
2019-05-06T02:32:30.160Z,19.30
2019-05-06T02:35:05.188Z,19.20
2019-05-06T02:37:40.295Z,19.20
2019-05-06T02:40:33.382Z,19.20
2019-05-06T02:43:08.047Z,19.30
2019-05-06T02:45:43.304Z,19.20
2019-05-06T02:48:26.341Z,19.30
2019-05-06T02:51:13.367Z,19.20
2019-05-06T02:53:47.462Z,18.80
2019-05-06T02:56:23.993Z,18.60
2019-05-06T02:58:57.170Z,18.70
2019-05-06T03:01:33.853Z,18.70
2019-05-06T03:04:05.546Z,18.70
2019-05-06T03:06:39.560Z,18.60
2019-05-06T03:09:13.649Z,18.50
2019-05-06T03:11:47.982Z,18.70
2019-05-06T03:14:23.468Z,18.60
2019-05-06T03:16:57.210Z,18.70
2019-05-06T03:19:34.121Z,18.70
2019-05-06T03:22:43.561Z,18.80
2019-05-06T03:25:34.654Z,18.80
2019-05-06T03:28:08.494Z,18.80
2019-05-06T03:30:45.932Z,18.80
2019-05-06T03:33:44.656Z,18.70
2019-05-06T03:36:06.199Z,18.80
2019-05-06T03:38:28.568Z,18.40
2019-05-06T03:41:03.173Z,18.30
2019-05-06T03:43:36.839Z,18.40
2019-05-06T03:46:35.820Z,18.50
2019-05-06T03:49:09.286Z,18.50
2019-05-06T03:51:43.081Z,18.30
2019-05-06T03:54:18.130Z,18.50
2019-05-06T03:56:53.726Z,18.30
2019-05-06T03:59:28.682Z,18.40
2019-05-06T04:02:05.325Z,18.60
2019-05-06T04:04:39.166Z,18.50
2019-05-06T04:07:14.014Z,18.60
2019-05-06T04:09:47.908Z,18.50
2019-05-06T04:12:23.336Z,18.20
2019-05-06T04:14:57.036Z,18.20
2019-05-06T04:17:53.804Z,18.20
2019-05-06T04:20:37.800Z,18.50
2019-05-06T04:23:29.123Z,18.60
2019-05-06T04:26:13.411Z,18.50
2019-05-06T04:28:46.480Z,18.40
2019-05-06T04:31:22.713Z,18.40
2019-05-06T04:34:10.053Z,18.30
2019-05-06T04:36:33.686Z,18.10
2019-05-06T04:39:06.667Z,18.20
2019-05-06T04:41:43.227Z,18.20
2019-05-06T04:44:16.202Z,18.30
2019-05-06T04:46:49.773Z,18.30
2019-05-06T04:49:23.824Z,18.30
2019-05-06T04:51:58.347Z,18.30
2019-05-06T04:54:33.617Z,18.30
2019-05-06T04:57:07.300Z,18.50
2019-05-06T04:59:43.181Z,18.50
2019-05-06T05:02:15.700Z,18.50
2019-05-06T05:04:52.641Z,18.40
2019-05-06T05:07:25.678Z,18.20
2019-05-06T05:10:14.462Z,18.20
2019-05-06T05:12:56.866Z,18.30
2019-05-06T05:15:48.822Z,18.20
2019-05-06T05:18:29.270Z,18.40
2019-05-06T05:21:03.605Z,18.30
2019-05-06T05:23:37.893Z,18.50
2019-05-06T05:26:12.176Z,18.30
2019-05-06T05:28:46.048Z,18.50
2019-05-06T05:31:19.056Z,18.60
2019-05-06T05:33:53.362Z,18.70
2019-05-06T05:36:26.925Z,18.80
2019-05-06T05:39:03.088Z,18.80
2019-05-06T05:41:36.306Z,18.70
2019-05-06T05:44:17.245Z,18.40
2019-05-06T05:46:52.359Z,18.50
2019-05-06T05:49:47.529Z,18.70
2019-05-06T05:52:22.279Z,18.60
2019-05-06T05:54:56.490Z,18.50
2019-05-06T05:57:31.715Z,18.60
2019-05-06T06:00:05.457Z,18.60
2019-05-06T06:02:38.020Z,18.70
2019-05-06T06:05:12.353Z,18.70
2019-05-06T06:07:44.750Z,18.90
2019-05-06T06:10:26.244Z,18.80
2019-05-06T06:12:58.337Z,18.80
2019-05-06T06:15:37.957Z,18.90
2019-05-06T06:18:27.455Z,18.90
2019-05-06T06:21:24.720Z,18.90
2019-05-06T06:23:54.896Z,18.80
2019-05-06T06:26:26.829Z,19.00
2019-05-06T06:28:59.765Z,19.00
2019-05-06T06:31:52.428Z,18.90
2019-05-06T06:34:30.041Z,18.80
2019-05-06T06:37:28.103Z,18.70
2019-05-06T06:40:02.734Z,19.10
2019-05-06T06:42:36.933Z,19.00
2019-05-06T06:45:12.277Z,19.00
2019-05-06T06:47:46.579Z,19.20
2019-05-06T06:50:22.059Z,19.20
2019-05-06T06:52:56.057Z,19.40
2019-05-06T06:55:31.840Z,19.60
2019-05-06T06:58:28.766Z,19.80
2019-05-06T07:01:28.583Z,20.10
2019-05-06T07:04:23.165Z,20.10
2019-05-06T07:06:57.764Z,19.80
2019-05-06T07:09:32.379Z,19.90
2019-05-06T07:12:06.436Z,19.90
2019-05-06T07:14:42.259Z,20.10
2019-05-06T07:17:15.790Z,20.00
2019-05-06T07:19:53.458Z,19.60
2019-05-06T07:22:32.549Z,19.70
2019-05-06T07:25:07.251Z,19.60
2019-05-06T07:27:42.063Z,19.80
2019-05-06T07:30:15.479Z,19.90
2019-05-06T07:32:48.874Z,20.00
2019-05-06T07:35:23.812Z,19.90
2019-05-06T07:37:55.732Z,20.10
2019-05-06T07:40:28.183Z,20.30
2019-05-06T07:43:02.352Z,20.60
2019-05-06T07:45:45.681Z,20.40
2019-05-06T07:48:17.927Z,20.40
2019-05-06T07:50:52.085Z,20.40
2019-05-06T07:53:25.856Z,20.60
2019-05-06T07:55:57.795Z,20.50
2019-05-06T07:58:32.245Z,20.50
2019-05-06T08:01:04.768Z,20.40
2019-05-06T08:03:37.273Z,20.70
2019-05-06T08:06:09.738Z,20.40
2019-05-06T08:08:43.363Z,20.20
2019-05-06T08:11:15.968Z,19.90
2019-05-06T08:13:48.320Z,20.30
2019-05-06T08:16:22.624Z,20.30
2019-05-06T08:18:56.095Z,20.30
2019-05-06T08:21:32.651Z,20.40
2019-05-06T08:24:05.625Z,20.30
2019-05-06T08:26:38.631Z,20.50
2019-05-06T08:29:12.568Z,20.40
2019-05-06T08:31:46.426Z,20.30
2019-05-06T08:34:22.472Z,20.40
2019-05-06T08:37:22.745Z,20.30
2019-05-06T08:39:55.965Z,20.20
2019-05-06T08:42:28.927Z,20.10
2019-05-06T08:45:02.226Z,20.10
2019-05-06T08:47:36.667Z,20.30
2019-05-06T08:50:42.556Z,20.20
2019-05-06T08:53:30.357Z,20.00
2019-05-06T08:56:05.323Z,19.80
2019-05-06T08:58:48.727Z,19.70
2019-05-06T09:01:32.704Z,19.90
2019-05-06T09:04:12.425Z,20.00
2019-05-06T09:06:43.156Z,20.30
2019-05-06T09:09:17.068Z,20.10
2019-05-06T09:11:53.116Z,20.30
2019-05-06T09:14:26.702Z,20.20
2019-05-06T09:16:59.867Z,20.20
2019-05-06T09:19:33.549Z,20.30
2019-05-06T09:22:07.350Z,20.10
2019-05-06T09:24:42.683Z,20.50
2019-05-06T09:27:22.589Z,20.50
2019-05-06T09:30:02.844Z,20.30
2019-05-06T09:32:42.945Z,20.50
2019-05-06T09:35:16.913Z,20.60
2019-05-06T09:37:53.275Z,20.70
2019-05-06T09:40:25.903Z,21.10
2019-05-06T09:42:59.034Z,20.90
2019-05-06T09:45:33.090Z,20.40
2019-05-06T09:48:34.747Z,20.50
2019-05-06T09:51:08.843Z,21.00
2019-05-06T09:54:01.608Z,20.80
2019-05-06T09:56:45.868Z,21.10
2019-05-06T09:59:21.566Z,21.50
2019-05-06T10:01:55.013Z,21.30
2019-05-06T10:04:28.873Z,21.30
2019-05-06T10:07:02.748Z,21.10
2019-05-06T10:09:37.048Z,20.90
2019-05-06T10:12:12.778Z,21.00
2019-05-06T10:14:47.169Z,21.10
2019-05-06T10:17:21.363Z,21.10
2019-05-06T10:19:55.093Z,21.00
2019-05-06T10:22:28.970Z,21.00
2019-05-06T10:25:03.830Z,21.00
2019-05-06T10:27:39.421Z,21.00
2019-05-06T10:30:12.760Z,21.20
2019-05-06T10:32:49.615Z,21.20
2019-05-06T10:35:26.831Z,21.10
2019-05-06T10:38:33.398Z,21.00
2019-05-06T10:41:13.021Z,20.90
2019-05-06T10:44:35.350Z,20.90
2019-05-06T10:47:08.845Z,21.20
2019-05-06T10:49:42.083Z,20.90
2019-05-06T10:52:25.695Z,20.80
2019-05-06T10:54:58.271Z,20.60
2019-05-06T10:57:35.035Z,20.60
2019-05-06T11:00:09.135Z,20.80
2019-05-06T11:03:14.377Z,20.70
2019-05-06T11:05:46.573Z,20.90
2019-05-06T11:08:22.098Z,20.90
2019-05-06T11:10:55.310Z,20.80
2019-05-06T11:13:28.661Z,20.70
2019-05-06T11:16:03.386Z,20.80
2019-05-06T11:18:36.530Z,20.90
2019-05-06T11:21:12.614Z,21.00
2019-05-06T11:23:45.288Z,20.80
2019-05-06T11:26:17.328Z,20.80
2019-05-06T11:28:56.867Z,21.10
2019-05-06T11:31:49.108Z,21.40
2019-05-06T11:34:45.211Z,21.80
2019-05-06T11:37:47.167Z,22.10
2019-05-06T11:40:17.028Z,22.30
2019-05-06T11:42:49.167Z,22.50
2019-05-06T11:45:22.892Z,22.40
2019-05-06T11:47:56.291Z,21.80
2019-05-06T11:50:28.261Z,21.60
2019-05-06T11:53:02.467Z,21.40
2019-05-06T11:55:38.838Z,21.20
2019-05-06T11:58:28.249Z,21.10
2019-05-06T12:01:04.484Z,20.90
2019-05-06T12:03:37.705Z,20.60
2019-05-06T12:06:13.078Z,20.30
2019-05-06T12:08:47.334Z,20.60
2019-05-06T12:11:23.445Z,20.80
2019-05-06T12:13:55.109Z,21.50
2019-05-06T12:16:27.567Z,21.50
2019-05-06T12:19:02.212Z,22.00
2019-05-06T12:21:34.850Z,22.10
2019-05-06T12:24:07.176Z,22.40
2019-05-06T12:26:42.931Z,22.40
2019-05-06T12:29:17.393Z,22.40
2019-05-06T12:31:55.969Z,22.20
2019-05-06T12:34:29.353Z,21.90
2019-05-06T12:37:04.708Z,21.50
2019-05-06T12:39:38.108Z,21.20
2019-05-06T12:42:16.845Z,21.00
2019-05-06T12:45:27.192Z,20.50
2019-05-06T12:48:06.241Z,20.10
2019-05-06T12:50:39.646Z,20.20
2019-05-06T12:53:13.864Z,20.80
2019-05-06T12:55:47.380Z,21.20
2019-05-06T12:58:23.364Z,21.30
2019-05-06T13:00:57.413Z,21.40
2019-05-06T13:03:32.628Z,21.60
2019-05-06T13:06:08.488Z,21.90
2019-05-06T13:08:56.689Z,22.20
2019-05-06T13:11:18.087Z,22.30
2019-05-06T13:13:59.742Z,22.50
2019-05-06T13:16:27.053Z,22.40
2019-05-06T13:19:03.369Z,22.10
2019-05-06T13:21:36.866Z,22.20
2019-05-06T13:24:12.185Z,22.00
2019-05-06T13:26:46.659Z,21.90
2019-05-06T13:29:24.520Z,21.40
2019-05-06T13:31:56.978Z,21.00
2019-05-06T13:34:29.663Z,21.40
2019-05-06T13:37:03.265Z,21.30
2019-05-06T13:39:35.699Z,21.00
2019-05-06T13:42:07.632Z,20.90
2019-05-06T13:44:39.712Z,20.60
2019-05-06T13:47:15.949Z,20.20
2019-05-06T13:49:56.913Z,20.20
2019-05-06T13:52:36.428Z,20.30
2019-05-06T13:55:09.770Z,20.40
2019-05-06T13:57:42.985Z,20.40
2019-05-06T14:00:18.335Z,20.30
2019-05-06T14:02:54.355Z,20.60
2019-05-06T14:05:28.469Z,20.80
2019-05-06T14:08:04.588Z,20.90
2019-05-06T14:10:35.451Z,21.20
2019-05-06T14:13:07.979Z,21.30
2019-05-06T14:15:42.011Z,21.40
2019-05-06T14:18:14.357Z,21.70
2019-05-06T14:20:48.335Z,21.50
2019-05-06T14:23:22.277Z,21.20
2019-05-06T14:26:28.927Z,21.20
2019-05-06T14:29:16.203Z,21.00
2019-05-06T14:31:52.540Z,20.70
2019-05-06T14:34:25.229Z,20.80
2019-05-06T14:36:58.660Z,20.90
2019-05-06T14:39:48.572Z,20.60
2019-05-06T14:42:08.311Z,20.40
2019-05-06T14:44:43.154Z,19.80
2019-05-06T14:47:25.182Z,19.40
2019-05-06T14:49:57.212Z,19.30
2019-05-06T14:52:33.150Z,19.30
2019-05-06T14:55:27.737Z,19.60
2019-05-06T14:58:04.308Z,20.00
2019-05-06T15:00:36.751Z,20.00
2019-05-06T15:03:12.967Z,20.10
2019-05-06T15:05:46.306Z,20.20
2019-05-06T15:08:22.342Z,20.10
2019-05-06T15:10:55.420Z,20.30
2019-05-06T15:13:31.992Z,21.00
2019-05-06T15:16:05.519Z,21.90
2019-05-06T15:18:39.257Z,22.20
2019-05-06T15:21:32.350Z,22.00
2019-05-06T15:23:47.478Z,21.60
2019-05-06T15:26:22.904Z,21.30
2019-05-06T15:28:56.609Z,21.00
2019-05-06T15:31:42.114Z,21.10
2019-05-06T15:34:22.286Z,21.20
2019-05-06T15:37:04.774Z,21.60
2019-05-06T15:39:38.401Z,21.50
2019-05-06T15:42:12.830Z,21.50
2019-05-06T15:44:47.542Z,21.40
2019-05-06T15:47:22.662Z,21.50
2019-05-06T15:49:56.655Z,21.10
2019-05-06T15:52:32.449Z,21.30
2019-05-06T15:55:05.998Z,21.30
2019-05-06T15:57:39.300Z,21.50
2019-05-06T16:00:17.033Z,21.20
2019-05-06T16:02:52.744Z,20.70
2019-05-06T16:05:26.847Z,20.60
2019-05-06T16:08:02.716Z,20.20
2019-05-06T16:10:51.374Z,19.70
2019-05-06T16:13:12.949Z,19.80
2019-05-06T16:15:46.084Z,20.20
2019-05-06T16:18:20.195Z,19.70
2019-05-06T16:20:57.243Z,19.20
2019-05-06T16:23:38.366Z,18.90
2019-05-06T16:26:12.632Z,18.90
2019-05-06T16:28:46.918Z,19.10
2019-05-06T16:31:22.347Z,19.60
2019-05-06T16:33:56.580Z,19.80
2019-05-06T16:36:32.389Z,19.50
2019-05-06T16:39:07.319Z,19.30
2019-05-06T16:41:42.667Z,19.10
2019-05-06T16:44:16.513Z,19.20
2019-05-06T16:46:52.381Z,18.90
2019-05-06T16:49:27.376Z,18.70
2019-05-06T16:52:02.519Z,18.70
2019-05-06T16:54:35.294Z,18.60
2019-05-06T16:57:23.175Z,18.90
2019-05-06T16:59:57.263Z,18.60
2019-05-06T17:02:38.864Z,18.80
2019-05-06T17:05:29.228Z,18.80
2019-05-06T17:08:03.177Z,19.00
2019-05-06T17:10:35.987Z,19.40
2019-05-06T17:13:09.958Z,19.40
2019-05-06T17:15:44.523Z,19.40
2019-05-06T17:18:18.394Z,19.70
2019-05-06T17:20:52.302Z,20.20
2019-05-06T17:23:27.433Z,20.20
2019-05-06T17:26:01.458Z,20.40
2019-05-06T17:28:53.382Z,20.60
2019-05-06T17:31:49.999Z,20.70
2019-05-06T17:34:26.765Z,20.80
2019-05-06T17:37:04.415Z,21.00
2019-05-06T17:39:36.930Z,21.40
2019-05-06T17:42:11.100Z,21.50
2019-05-06T17:44:44.605Z,21.20
2019-05-06T17:47:40.091Z,20.90
2019-05-06T17:50:13.092Z,20.80
2019-05-06T17:52:46.007Z,20.80
2019-05-06T17:55:18.511Z,20.20
2019-05-06T17:57:52.861Z,20.40
2019-05-06T18:00:26.061Z,20.50
2019-05-06T18:02:59.868Z,20.50
2019-05-06T18:05:32.621Z,20.70
2019-05-06T18:08:05.182Z,20.80
2019-05-06T18:10:37.564Z,21.00
2019-05-06T18:13:12.381Z,20.80
2019-05-06T18:15:44.037Z,20.80
2019-05-06T18:18:17.060Z,20.90
2019-05-06T18:20:52.875Z,20.70
2019-05-06T18:23:25.466Z,20.30
2019-05-06T18:25:58.946Z,20.40
2019-05-06T18:28:32.772Z,20.00
2019-05-06T18:31:06.211Z,19.90
2019-05-06T18:33:39.641Z,19.70
2019-05-06T18:36:13.004Z,19.70
2019-05-06T18:38:45.993Z,19.80
2019-05-06T18:41:18.454Z,19.50
2019-05-06T18:43:53.413Z,19.40
2019-05-06T18:46:27.003Z,19.50
2019-05-06T18:49:02.402Z,19.70
2019-05-06T18:51:35.648Z,19.60
2019-05-06T18:54:09.274Z,19.50
2019-05-06T18:56:43.382Z,19.40
2019-05-06T18:59:17.837Z,19.20
2019-05-06T19:01:53.713Z,19.30
2019-05-06T19:04:33.581Z,19.30
2019-05-06T19:07:14.554Z,19.10
2019-05-06T19:09:55.229Z,19.00
2019-05-06T19:12:32.618Z,19.10
2019-05-06T19:15:04.080Z,19.10
2019-05-06T19:17:36.698Z,19.10
2019-05-06T19:20:10.541Z,19.20
2019-05-06T19:22:43.690Z,19.30
2019-05-06T19:25:16.787Z,19.20
2019-05-06T19:27:49.617Z,19.40
2019-05-06T19:30:23.347Z,19.00
2019-05-06T19:32:56.506Z,18.90
2019-05-06T19:35:32.336Z,18.80
2019-05-06T19:38:05.241Z,19.10
2019-05-06T19:40:38.408Z,19.60
2019-05-06T19:43:12.407Z,19.90
2019-05-06T19:45:45.926Z,20.10
2019-05-06T19:48:19.080Z,20.10
2019-05-06T19:50:52.285Z,20.10
2019-05-06T19:53:26.542Z,20.30
2019-05-06T19:55:59.911Z,20.10
2019-05-06T19:58:34.059Z,19.80
2019-05-06T20:01:07.797Z,19.40
2019-05-06T20:03:42.305Z,19.00
2019-05-06T20:06:36.003Z,19.00
2019-05-06T20:09:35.407Z,19.00
2019-05-06T20:12:12.427Z,18.60
2019-05-06T20:14:46.091Z,18.20
2019-05-06T20:17:19.682Z,17.90
2019-05-06T20:19:52.319Z,17.60
2019-05-06T20:22:25.901Z,17.20
2019-05-06T20:24:59.215Z,17.40
2019-05-06T20:27:32.672Z,17.40
2019-05-06T20:30:06.381Z,17.70
2019-05-06T20:32:39.053Z,17.50
2019-05-06T20:35:13.135Z,17.70
2019-05-06T20:37:47.034Z,17.40
2019-05-06T20:40:22.872Z,17.30
2019-05-06T20:42:56.112Z,18.10
2019-05-06T20:45:32.414Z,18.00
2019-05-06T20:48:04.230Z,17.80
2019-05-06T20:50:38.092Z,17.80
2019-05-06T20:53:12.125Z,17.60
2019-05-06T20:55:45.571Z,17.60
2019-05-06T20:58:19.306Z,17.80
2019-05-06T21:00:52.940Z,17.80
2019-05-06T21:03:27.079Z,17.80
2019-05-06T21:06:02.076Z,17.80
2019-05-06T21:08:35.787Z,18.10
2019-05-06T21:11:24.919Z,18.00
2019-05-06T21:13:45.451Z,17.70
2019-05-06T21:16:19.605Z,17.30
2019-05-06T21:18:53.220Z,17.60
2019-05-06T21:21:27.157Z,18.00
2019-05-06T21:24:02.035Z,17.90
2019-05-06T21:26:36.302Z,17.80
2019-05-06T21:29:09.847Z,17.90
2019-05-06T21:31:43.343Z,17.80
2019-05-06T21:34:17.640Z,17.80
2019-05-06T21:36:53.160Z,17.70
2019-05-06T21:39:26.963Z,17.50
2019-05-06T21:42:00.929Z,17.70
2019-05-06T21:44:34.985Z,17.70
2019-05-06T21:47:08.721Z,17.60
2019-05-06T21:49:42.608Z,17.40
2019-05-06T21:52:16.599Z,17.20
2019-05-06T21:54:52.423Z,16.80
2019-05-06T21:57:26.437Z,16.90
2019-05-06T22:00:02.404Z,16.80
2019-05-06T22:02:35.878Z,16.80
2019-05-06T22:05:09.237Z,17.00
2019-05-06T22:07:43.575Z,16.90
2019-05-06T22:10:16.745Z,17.00
2019-05-06T22:12:52.686Z,16.90
2019-05-06T22:15:26.556Z,16.60
2019-05-06T22:18:02.403Z,16.50
2019-05-06T22:20:54.558Z,16.70
2019-05-06T22:23:29.522Z,16.70
2019-05-06T22:26:13.000Z,16.30
2019-05-06T22:28:38.596Z,16.00
2019-05-06T22:31:12.218Z,15.70
2019-05-06T22:33:45.557Z,15.60
2019-05-06T22:36:19.307Z,15.90
2019-05-06T22:38:53.183Z,16.20
2019-05-06T22:41:26.764Z,16.30
2019-05-06T22:44:12.529Z,16.20
2019-05-06T22:46:36.392Z,16.00
2019-05-06T22:49:10.094Z,16.10
2019-05-06T22:51:43.296Z,15.90
2019-05-06T22:54:17.284Z,16.30
2019-05-06T22:56:52.393Z,16.20
2019-05-06T22:59:26.698Z,16.20
2019-05-06T23:02:07.018Z,16.30
2019-05-06T23:04:40.141Z,16.50
2019-05-06T23:07:14.277Z,17.00
2019-05-06T23:09:48.170Z,16.70
2019-05-06T23:12:23.160Z,17.10
2019-05-06T23:14:56.773Z,17.20
2019-05-06T23:17:34.244Z,17.50
2019-05-06T23:20:06.441Z,17.30
2019-05-06T23:22:42.285Z,16.20
2019-05-06T23:25:15.852Z,15.40
2019-05-06T23:27:48.816Z,15.00
2019-05-06T23:30:23.585Z,14.30
2019-05-06T23:32:57.228Z,14.40
2019-05-06T23:35:31.274Z,14.20
2019-05-06T23:38:56.929Z,13.60
2019-05-06T23:42:22.802Z,13.40
2019-05-06T23:45:49.511Z,13.20
2019-05-06T23:49:14.834Z,13.20
2019-05-06T23:52:39.914Z,13.50
2019-05-06T23:56:04.954Z,14.10
2019-05-06T23:58:38.250Z,13.80
